Terminal Aerodrome Forecast
Issued by NWS

Current Version | Previous Version | Text Only | Print | Product List | Glossary On
Versions: 1 2 3 4 5 6 7 8 9 10 11 12
000
FTUS46 KPDT 170500
TAFALW
TAF
KALW 170535Z 1706/1806 12007KT P6SM BKN070 BKN100
     FM171200 17008KT P6SM BKN050 OVC100
     FM171800 20012KT P6SM -RA BKN040 OVC070
     FM172200 22012KT P6SM -RA BKN040 BKN070
     FM180400 22015G25KT P6SM BKN050 BKN100=

USA.gov is the U.S. government's official web portal to all federal, state and local government web resources and services.